Armstrong, Iowa
Current Conditions -  °F | °C
As of 9:52 AM on Saturday 22 Nov 2014 (Local Time) from KEST Reporting Station
Haze Haze  
Wind Chill: 25°   Ceiling: 200
Heat Index: 34°   Visibility: 0.75mi
Dew Point: 34°   Wind: 14mph
Humidity: 100%   Direction: 230°SW
Pressure: 29.75"   Gusts: 21mph
Location:  43.4°N, 94.48°W
Report Text: KEST 221552Z AUTO 23012G18KT 3/4SM BR OVC002 01/01 A2975 RMK AO2 SLP088 T00110011
Loading
Personal Weather Stations






























Interactive Weather Map New forecast layout! Learn more

10-Day Weather Forecast

Advertisements
Track Severe Weather on mobile